Smithville, Pennsylvania
Current Conditions -  °F | °C
As of 10:53 AM on Saturday 25 Oct 2014 (Local Time) from KLNS Reporting Station
Clear Clear  
Wind Chill: 59°   Ceiling: Unl
Heat Index: 59°   Visibility: 10mi
Dew Point: 42°   Wind: 13mph
Humidity: 53%   Direction: 280°W
Pressure: 29.89"   Gusts: NA
Location:  39.9111°N, 76.2285°W
Report Text: KLNS 251453Z 28011KT 10SM CLR 15/06 A2989 RMK AO2 SLP122 T01500056 58009
Loading
Personal Weather Stations






























Interactive Weather Map
Tropical Storm Tracking
New forecast layout! Learn more

10-Day Weather Forecast

Advertisements
Track Severe Weather on mobile